Time;durP1;ratioP1;P1;durP2;ratioP2;P2;SDS_P1;SDS_P2;PMS_P1;PMS_P2;Temp;Humidity;BMP_temperature;BMP_pressure;BME280_temperature;BME280_humidity;BME280_pressure;Samples;Min_cycle;Max_cycle;Signal;HPM_P1;HPM_P2
2022/09/10 00:01:24;;;;;;;12.18;8.50;;;;;;;19.87;93.42;94921.50;5110921;27;20043;-75
2022/09/10 00:03:53;;;;;;;12.15;7.85;;;;;;;19.90;93.51;94931.50;5091057;27;20051;-75
2022/09/10 00:06:23;;;;;;;19.20;8.73;;;;;;;19.89;93.95;94924.63;5091911;28;20131;-75
2022/09/10 00:08:51;;;;;;;11.43;8.15;;;;;;;19.89;93.80;94929.94;5092941;27;20059;-75
2022/09/10 00:11:19;;;;;;;14.18;8.13;;;;;;;19.78;93.75;94902.09;5074487;27;20105;-74
2022/09/10 00:13:46;;;;;;;13.27;8.18;;;;;;;19.83;93.29;94899.38;5107702;27;20047;-74
2022/09/10 00:16:15;;;;;;;13.55;9.73;;;;;;;19.89;93.86;94908.00;5087682;28;20047;-75
2022/09/10 00:18:42;;;;;;;17.45;9.05;;;;;;;19.85;93.66;94908.56;5088429;28;20073;-75
2022/09/10 00:21:12;;;;;;;13.27;9.38;;;;;;;19.78;93.78;94899.44;5087246;28;20051;-75
2022/09/10 00:23:39;;;;;;;11.93;10.05;;;;;;;19.66;94.45;94899.84;5107958;27;20039;-75
2022/09/10 00:26:18;;;;;;;14.55;8.88;;;;;;;19.55;95.11;94907.13;5087790;27;21056;-75
2022/09/10 00:28:45;;;;;;;10.50;9.15;;;;;;;19.48;96.33;94914.63;5100292;28;20035;-74
2022/09/10 00:31:12;;;;;;;12.52;9.68;;;;;;;19.37;97.29;94918.47;5082665;27;20046;-75
2022/09/10 00:33:40;;;;;;;11.57;8.55;;;;;;;19.33;97.80;94922.75;5078188;28;20093;-74
2022/09/10 00:36:23;;;;;;;10.48;8.60;;;;;;;19.18;98.74;94900.75;5081829;28;20181;-74
2022/09/10 00:38:53;;;;;;;13.35;9.35;;;;;;;19.20;99.20;94908.38;5110728;27;21223;-74
2022/09/10 00:41:23;;;;;;;11.80;9.18;;;;;;;19.14;99.80;94915.59;5083351;28;20093;-75
2022/09/10 00:43:54;;;;;;;10.48;9.38;;;;;;;19.10;100.00;94909.28;5079283;28;20096;-75
2022/09/10 00:46:30;;;;;;;21.33;10.20;;;;;;;19.10;100.00;94910.09;5101685;28;20051;-75
2022/09/10 00:49:01;;;;;;;16.95;10.40;;;;;;;19.10;100.00;94909.28;5079284;28;20404;-75
2022/09/10 00:51:31;;;;;;;14.93;9.93;;;;;;;18.93;100.00;94903.69;5100837;28;20048;-74
2022/09/10 00:54:00;;;;;;;10.40;9.30;;;;;;;19.02;100.00;94925.75;5098318;28;20035;-75
2022/09/10 00:56:28;;;;;;;14.85;9.43;;;;;;;18.87;100.00;94922.22;5083396;28;20044;-75
2022/09/10 00:58:55;;;;;;;11.90;10.10;;;;;;;18.76;100.00;94915.44;5080085;28;20051;-75
2022/09/10 01:01:22;;;;;;;13.68;9.93;;;;;;;18.73;100.00;94916.00;5078925;28;20048;-74
2022/09/10 01:03:51;;;;;;;16.10;9.57;;;;;;;18.76;100.00;94915.44;5077934;28;20141;-74
2022/09/10 01:06:18;;;;;;;12.05;9.65;;;;;;;18.76;100.00;94915.44;5061926;28;20123;-75
2022/09/10 01:08:44;;;;;;;15.70;10.02;;;;;;;18.78;100.00;94908.06;5078150;28;20040;-74
2022/09/10 01:11:43;;;;;;;13.63;10.27;;;;;;;18.84;100.00;94906.94;5077680;28;20910;-75
2022/09/10 01:14:19;;;;;;;15.73;10.52;;;;;;;18.86;100.00;94899.53;5078941;28;20044;-75
2022/09/10 01:17:11;;;;;;;17.92;10.10;;;;;;;18.88;100.00;94892.13;5098638;28;20040;-75
2022/09/10 01:19:40;;;;;;;11.55;10.30;;;;;;;18.94;100.00;94898.13;5081381;28;20129;-74
2022/09/10 01:22:25;;;;;;;16.73;9.90;;;;;;;19.04;100.00;94890.09;5080797;28;20542;-75
2022/09/10 01:24:54;;;;;;;12.65;10.13;;;;;;;19.11;100.00;94884.47;5078283;28;20112;-75
2022/09/10 01:27:30;;;;;;;12.35;10.30;;;;;;;19.20;100.00;94872.22;5079715;28;20055;-74
2022/09/10 01:30:02;;;;;;;13.00;9.50;;;;;;;19.28;100.00;94879.50;5081041;28;20048;-75
2022/09/10 01:32:34;;;;;;;13.32;10.32;;;;;;;19.31;100.00;94882.66;5079649;28;20747;-75
2022/09/10 01:35:13;;;;;;;19.13;10.02;;;;;;;19.24;100.00;94883.00;5081229;28;20067;-75
2022/09/10 01:37:53;;;;;;;11.63;10.32;;;;;;;19.09;100.00;94876.06;5081053;28;20131;-75
2022/09/10 01:40:28;;;;;;;13.38;10.30;;;;;;;19.09;100.00;94886.63;5079754;28;20425;-75
2022/09/10 01:43:08;;;;;;;14.07;10.20;;;;;;;19.10;100.00;94878.41;5082521;28;20044;-75
2022/09/10 01:46:05;;;;;;;15.23;10.05;;;;;;;19.15;100.00;94868.84;5066502;28;20036;-74
2022/09/10 01:49:04;;;;;;;18.77;10.70;;;;;;;19.14;100.00;94873.34;5080388;28;20055;-75
2022/09/10 01:51:42;;;;;;;16.65;10.77;;;;;;;19.08;100.00;94869.19;5081258;28;20040;-75
2022/09/10 01:54:35;;;;;;;12.85;10.43;;;;;;;19.16;100.00;94873.84;5083566;28;20044;-75
2022/09/10 01:57:09;;;;;;;14.37;9.90;;;;;;;19.10;100.00;94869.69;5078033;28;20044;-75
2022/09/10 01:59:37;;;;;;;15.35;10.00;;;;;;;19.19;100.00;94870.63;5080720;28;20445;-75
2022/09/10 02:02:18;;;;;;;13.65;8.50;;;;;;;19.19;100.00;94860.06;5045979;28;20052;-75
2022/09/10 02:04:49;;;;;;;11.80;9.57;;;;;;;19.23;100.00;94876.94;5059617;28;20047;-75
2022/09/10 02:07:21;;;;;;;16.30;9.85;;;;;;;19.14;100.00;94868.06;5060471;28;20098;-75
2022/09/10 02:09:51;;;;;;;12.57;10.63;;;;;;;19.19;100.00;94875.13;5059110;28;20044;-74
2022/09/10 02:12:21;;;;;;;11.68;9.50;;;;;;;19.16;100.00;94875.69;5042079;28;20118;-75
2022/09/10 02:14:56;;;;;;;10.93;9.23;;;;;;;19.20;100.00;94874.84;5059016;28;20047;-75
2022/09/10 02:17:45;;;;;;;14.63;10.02;;;;;;;19.25;100.00;94885.34;5060777;28;20056;-74
2022/09/10 02:20:13;;;;;;;14.90;10.13;;;;;;;19.25;100.00;94890.63;5043174;28;20219;-74
2022/09/10 02:22:50;;;;;;;11.93;9.02;;;;;;;19.27;100.00;94904.31;5064494;28;20053;-75
2022/09/10 02:25:17;;;;;;;11.75;9.13;;;;;;;19.25;100.00;94901.19;5039135;28;20045;-75
2022/09/10 02:27:44;;;;;;;11.52;10.27;;;;;;;19.26;100.00;94902.75;5045861;28;20486;-75
2022/09/10 02:30:12;;;;;;;11.50;9.80;;;;;;;19.32;100.00;94895.56;5088041;28;20037;-75
2022/09/10 02:32:38;;;;;;;13.73;9.73;;;;;;;19.25;100.00;94880.06;5062979;28;20410;-74
2022/09/10 02:35:06;;;;;;;12.25;10.23;;;;;;;19.06;100.00;94851.00;5059801;28;20067;-75
2022/09/10 02:37:33;;;;;;;20.13;10.45;;;;;;;19.25;100.00;94885.34;5071277;28;20072;-74
2022/09/10 02:40:00;;;;;;;15.13;10.48;;;;;;;19.22;100.00;94880.63;5068656;28;20139;-75
2022/09/10 02:42:26;;;;;;;13.65;10.65;;;;;;;19.21;100.00;94883.53;5070622;28;20678;-74
2022/09/10 02:44:53;;;;;;;13.10;10.23;;;;;;;19.16;100.00;94897.59;5066146;28;20047;-74
2022/09/10 02:47:20;;;;;;;15.60;11.63;;;;;;;19.07;100.00;94889.53;5068729;28;20044;-74
2022/09/10 02:49:47;;;;;;;13.48;11.02;;;;;;;19.04;100.00;94891.94;5065722;28;20118;-74
2022/09/10 02:52:14;;;;;;;13.00;10.25;;;;;;;18.99;100.00;94892.00;5063808;28;20119;-75
2022/09/10 02:54:41;;;;;;;13.50;10.10;;;;;;;18.96;100.00;94897.84;5063911;28;20114;-75
2022/09/10 02:57:10;;;;;;;20.42;10.88;;;;;;;18.89;100.00;94901.63;5045878;28;20051;-74
2022/09/10 02:59:37;;;;;;;14.40;10.90;;;;;;;18.77;100.00;94880.09;5048069;28;20617;-75
2022/09/10 03:02:04;;;;;;;16.63;11.23;;;;;;;18.81;100.00;94875.84;5095823;27;20259;-75
2022/09/10 03:04:31;;;;;;;13.10;10.73;;;;;;;18.95;100.00;94885.72;5088783;27;20074;-75
2022/09/10 03:06:58;;;;;;;16.00;10.50;;;;;;;18.96;100.00;94882.81;5084090;28;20063;-75
2022/09/10 03:09:27;;;;;;;12.32;10.13;;;;;;;19.10;100.00;94896.09;5119542;27;20043;-75
2022/09/10 03:11:54;;;;;;;13.00;11.15;;;;;;;19.16;100.00;94887.06;5086587;28;20658;-75
2022/09/10 03:14:23;;;;;;;12.30;10.18;;;;;;;19.17;100.00;94885.19;5113526;27;20052;-75
2022/09/10 03:16:50;;;;;;;15.35;11.50;;;;;;;19.10;100.00;94862.56;5093820;27;20040;-75
2022/09/10 03:19:17;;;;;;;12.68;10.40;;;;;;;19.28;100.00;94881.34;5094315;27;20597;-76
2022/09/10 03:21:46;;;;;;;20.08;10.75;;;;;;;19.41;100.00;94893.06;5095157;28;20126;-76
2022/09/10 03:24:13;;;;;;;13.65;9.48;;;;;;;19.44;100.00;94903.06;5093164;27;20112;-76
2022/09/10 03:26:43;;;;;;;12.18;10.00;;;;;;;19.40;100.00;94886.22;5093189;28;20716;-76
2022/09/10 03:29:14;;;;;;;16.48;10.65;;;;;;;19.37;100.00;94894.69;5088134;27;20532;-75
2022/09/10 03:31:43;;;;;;;13.95;9.38;;;;;;;19.44;100.00;94897.78;5111721;27;20112;-75
2022/09/10 03:34:13;;;;;;;17.20;10.88;;;;;;;19.40;100.00;94886.22;5109544;27;20035;-75
2022/09/10 03:36:40;;;;;;;16.15;10.63;;;;;;;19.31;100.00;94888.69;5107008;27;20388;-76
2022/09/10 03:39:09;;;;;;;18.15;11.27;;;;;;;19.40;100.00;94888.84;5095348;27;20054;-75
2022/09/10 03:41:36;;;;;;;15.20;10.23;;;;;;;19.42;100.00;94890.13;5126480;27;20132;-75
2022/09/10 03:44:04;;;;;;;14.10;10.43;;;;;;;19.47;100.00;94881.38;5091349;28;20048;-75
2022/09/10 03:46:31;;;;;;;14.25;10.38;;;;;;;19.53;100.00;94884.72;5092889;27;20109;-75
2022/09/10 03:49:01;;;;;;;18.88;10.13;;;;;;;19.49;100.00;94892.44;5088195;27;20047;-75
2022/09/10 03:51:29;;;;;;;14.05;10.73;;;;;;;19.39;100.00;94895.19;5094504;28;20074;-76
2022/09/10 03:53:58;;;;;;;14.40;10.43;;;;;;;19.44;100.00;94903.06;5089526;27;20334;-75
2022/09/10 03:56:26;;;;;;;17.83;11.52;;;;;;;19.26;100.00;94892.19;5086874;27;20043;-76
2022/09/10 03:58:53;;;;;;;19.20;12.45;;;;;;;19.21;100.00;94889.63;5090304;27;20493;-75
2022/09/10 04:01:20;;;;;;;15.88;10.90;;;;;;;19.15;100.00;94889.97;5088585;28;20047;-75
2022/09/10 04:03:48;;;;;;;16.42;11.95;;;;;;;19.25;100.00;94885.34;5105426;27;20438;-76
2022/09/10 04:06:15;;;;;;;14.45;11.05;;;;;;;19.25;100.00;94885.34;5111671;27;20040;-76
2022/09/10 04:08:45;;;;;;;20.17;11.77;;;;;;;19.17;100.00;94864.06;5093072;28;20520;-75
2022/09/10 04:11:14;;;;;;;14.35;10.93;;;;;;;19.27;100.00;94877.94;5088948;27;20040;-76
2022/09/10 04:13:42;;;;;;;16.13;10.60;;;;;;;19.21;100.00;94857.94;5086828;28;20076;-76
2022/09/10 04:16:10;;;;;;;13.30;11.10;;;;;;;19.24;100.00;94867.91;5086916;28;20028;-76
2022/09/10 04:18:38;;;;;;;18.70;10.82;;;;;;;19.15;100.00;94843.22;5071955;28;20051;-75
2022/09/10 04:21:05;;;;;;;13.85;10.93;;;;;;;19.21;100.00;94852.66;5116041;27;20058;-74
2022/09/10 04:23:33;;;;;;;11.90;10.65;;;;;;;19.22;100.00;94858.72;5087380;28;20081;-75
2022/09/10 04:26:16;;;;;;;18.20;11.48;;;;;;;19.21;100.00;94852.66;5106037;27;20040;-75
2022/09/10 04:28:45;;;;;;;15.68;10.57;;;;;;;19.29;100.00;94864.44;5105406;27;20040;-75
2022/09/10 04:31:14;;;;;;;12.45;10.38;;;;;;;19.32;100.00;94868.34;5103314;28;20058;-75
2022/09/10 04:33:41;;;;;;;18.58;10.77;;;;;;;19.08;100.00;94869.19;5104454;28;20045;-75
2022/09/10 04:36:08;;;;;;;28.90;11.77;;;;;;;19.00;100.00;94877.75;5099926;28;20039;-75
2022/09/10 04:38:40;;;;;;;14.95;11.13;;;;;;;18.97;100.00;94867.75;5122458;27;20032;-75
2022/09/10 04:41:08;;;;;;;15.00;10.80;;;;;;;19.03;100.00;94882.44;5070235;27;20043;-74
2022/09/10 04:43:37;;;;;;;13.60;9.88;;;;;;;18.97;100.00;94904.69;5120455;28;20039;-74
2022/09/10 04:46:05;;;;;;;14.68;10.18;;;;;;;18.75;100.00;94895.41;5124195;28;20032;-75
2022/09/10 04:48:34;;;;;;;18.48;10.57;;;;;;;18.64;100.00;94918.47;5103260;27;20040;-75
2022/09/10 04:51:01;;;;;;;13.48;10.50;;;;;;;18.62;100.00;94911.88;5104476;28;20676;-75
2022/09/10 04:53:50;;;;;;;14.63;10.38;;;;;;;18.57;100.00;94893.50;5090114;27;20053;-75
2022/09/10 04:56:19;;;;;;;18.13;10.40;;;;;;;18.66;100.00;94899.72;5064433;28;20042;-78
2022/09/10 04:58:47;;;;;;;12.70;10.27;;;;;;;18.70;100.00;94890.19;5068030;28;20047;-78
2022/09/10 05:01:14;;;;;;;17.95;9.93;;;;;;;18.87;100.00;94895.84;5100470;28;20044;-82
2022/09/10 05:03:44;;;;;;;13.52;9.43;;;;;;;18.96;100.00;94889.91;5079794;28;20032;-79
2022/09/10 05:06:11;;;;;;;16.02;9.48;;;;;;;19.02;100.00;94902.78;5101211;28;20040;-79
2022/09/10 05:08:39;;;;;;;16.75;9.20;;;;;;;19.01;100.00;94905.69;5102034;28;20132;-80
2022/09/10 05:11:07;;;;;;;16.13;9.43;;;;;;;19.07;100.00;94894.03;5091642;28;20047;-78
2022/09/10 05:13:34;;;;;;;14.02;9.18;;;;;;;19.18;100.00;94879.63;5087060;28;20113;-79
2022/09/10 05:16:01;;;;;;;16.00;9.10;;;;;;;19.34;100.00;94895.25;5120781;28;20087;-79
2022/09/10 05:18:31;;;;;;;11.88;8.70;;;;;;;19.40;100.00;94904.69;5101986;28;20063;-79
2022/09/10 05:20:58;;;;;;;10.32;8.82;;;;;;;19.45;100.00;94888.78;5098197;28;20038;-79
2022/09/10 05:23:26;;;;;;;14.18;9.10;;;;;;;19.60;100.00;94891.19;5119503;28;20036;-80
2022/09/10 05:25:55;;;;;;;14.63;9.10;;;;;;;19.77;100.00;94895.22;5083929;28;20040;-79
2022/09/10 05:28:23;;;;;;;12.00;8.95;;;;;;;19.76;100.00;94910.28;5117868;28;20047;-79
2022/09/10 05:30:51;;;;;;;10.18;8.68;;;;;;;19.84;100.00;94928.16;5085151;28;20833;-78
2022/09/10 05:33:21;;;;;;;13.15;8.88;;;;;;;19.67;100.00;94910.13;5109420;28;20678;-78
2022/09/10 05:35:50;;;;;;;12.32;10.00;;;;;;;19.55;100.00;94901.84;5084979;28;20107;-79
2022/09/10 05:38:19;;;;;;;13.93;9.80;;;;;;;19.57;100.00;94902.38;5106245;28;20074;-76
2022/09/10 05:40:47;;;;;;;13.05;10.02;;;;;;;19.75;100.00;94913.22;5102076;28;20046;-78
2022/09/10 05:43:14;;;;;;;12.15;9.43;;;;;;;19.77;100.00;94900.50;5088486;28;20048;-79
2022/09/10 05:45:43;;;;;;;12.40;8.68;;;;;;;19.77;100.00;94911.06;5088691;28;20253;-78
2022/09/10 05:48:10;;;;;;;11.57;8.85;;;;;;;19.86;100.00;94925.22;5100320;28;20047;-78
2022/09/10 05:50:37;;;;;;;15.02;10.52;;;;;;;19.91;100.00;94919.84;5105460;28;20051;-78
2022/09/10 05:53:04;;;;;;;16.33;10.18;;;;;;;19.96;100.00;94913.72;5104820;28;20044;-78
2022/09/10 05:55:32;;;;;;;12.60;9.38;;;;;;;20.02;100.00;94902.78;5121832;28;20051;-78
2022/09/10 05:57:59;;;;;;;13.68;9.82;;;;;;;20.01;100.00;94898.56;5085941;28;20069;-78
2022/09/10 06:00:26;;;;;;;13.35;10.57;;;;;;;20.13;100.00;94894.66;5090110;28;20044;-79
2022/09/10 06:02:59;;;;;;;17.50;10.70;;;;;;;20.34;100.00;94898.53;5087909;27;20058;-79
2022/09/10 06:05:35;;;;;;;15.55;10.27;;;;;;;20.55;100.00;94900.84;5087193;27;20055;-79
2022/09/10 06:08:02;;;;;;;15.95;10.52;;;;;;;20.63;100.00;94889.59;5092371;27;20130;-76
2022/09/10 06:10:37;;;;;;;15.05;9.63;;;;;;;20.80;100.00;94884.53;5095344;27;20115;-78
2022/09/10 06:13:05;;;;;;;11.95;9.05;;;;;;;20.96;100.00;94897.47;5091053;27;20053;-72
2022/09/10 06:15:34;;;;;;;15.23;10.60;;;;;;;21.03;99.32;94892.56;5091875;28;20048;-67
2022/09/10 06:18:01;;;;;;;14.57;8.23;;;;;;;21.20;97.88;94903.31;5093592;27;20115;-69
2022/09/10 06:20:29;;;;;;;12.88;7.95;;;;;;;21.29;96.47;94890.16;5089878;28;20116;-67
2022/09/10 06:22:56;;;;;;;11.90;6.32;;;;;;;21.58;93.51;94892.50;5087668;27;20112;-67
2022/09/10 06:25:23;;;;;;;8.38;6.32;;;;;;;21.84;90.24;94899.88;5102694;27;20762;-68
2022/09/10 06:27:50;;;;;;;6.22;5.63;;;;;;;22.08;86.18;94898.81;5080548;28;20048;-69
2022/09/10 06:30:19;;;;;;;6.40;5.20;;;;;;;22.14;84.18;94889.63;5124881;27;20232;-71
2022/09/10 06:32:47;;;;;;;9.07;6.65;;;;;;;22.26;83.96;94879.28;5095894;28;20238;-72
2022/09/10 06:35:14;;;;;;;7.32;5.18;;;;;;;22.49;81.72;94887.19;5092022;27;20046;-72
2022/09/10 06:37:42;;;;;;;15.70;5.05;;;;;;;22.57;78.83;94883.81;5089228;28;20036;-74
2022/09/10 06:40:12;;;;;;;8.77;4.80;;;;;;;22.78;76.69;94888.56;5083857;27;20096;-75
2022/09/10 06:42:41;;;;;;;7.15;5.32;;;;;;;22.86;75.80;94879.84;5066741;28;20601;-74
2022/09/10 06:45:12;;;;;;;9.55;4.68;;;;;;;22.80;74.03;94891.72;5083524;27;20106;-74
2022/09/10 06:47:58;;;;;;;6.55;4.63;;;;;;;22.78;73.47;94888.56;5082827;27;20598;-75
2022/09/10 06:50:56;;;;;;;5.50;4.80;;;;;;;23.01;72.35;94887.41;5080840;27;20043;-75
2022/09/10 06:53:28;;;;;;;5.85;4.45;;;;;;;23.12;72.57;94903.09;5090127;27;20514;-74
2022/09/10 06:55:58;;;;;;;7.57;5.28;;;;;;;23.26;70.93;94887.78;5085892;27;20054;-75
2022/09/10 06:58:29;;;;;;;6.75;4.50;;;;;;;23.37;68.98;94894.41;5081653;28;20054;-75
2022/09/10 07:00:56;;;;;;;8.77;4.90;;;;;;;23.62;67.33;94905.34;5080624;27;20051;-74
2022/09/10 07:03:23;;;;;;;13.63;4.85;;;;;;;23.81;64.39;94895.22;5066220;28;20108;-75
2022/09/10 07:05:52;;;;;;;8.25;4.60;;;;;;;24.00;62.58;94902.09;5082582;27;20043;-75
2022/09/10 07:08:21;;;;;;;8.50;4.25;;;;;;;24.27;61.86;94905.50;5082854;27;20609;-75
2022/09/10 07:10:59;;;;;;;10.18;3.95;;;;;;;24.39;59.81;94917.06;5066177;27;20148;-75
2022/09/10 07:13:26;;;;;;;6.28;4.00;;;;;;;24.47;59.80;94912.03;5078241;27;20044;-75
2022/09/10 07:15:54;;;;;;;7.75;4.43;;;;;;;24.51;59.40;94903.13;5085171;27;20154;-75
2022/09/10 07:18:22;;;;;;;6.43;4.35;;;;;;;24.70;57.92;94920.63;5061207;28;20039;-75
2022/09/10 07:20:49;;;;;;;9.75;4.13;;;;;;;24.92;57.32;94917.75;5083557;27;20062;-76
2022/09/10 07:23:19;;;;;;;6.38;4.22;;;;;;;25.00;56.22;94930.22;5077813;27;20121;-68
2022/09/10 07:25:48;;;;;;;7.80;4.50;;;;;;;25.12;54.54;94918.09;5087557;27;20520;-67
2022/09/10 07:28:35;;;;;;;8.98;4.85;;;;;;;25.28;54.08;94913.84;5101485;27;20047;-67
2022/09/10 07:31:26;;;;;;;9.13;4.40;;;;;;;25.49;53.88;94919.19;5081579;28;20063;-68
2022/09/10 07:33:59;;;;;;;5.57;3.75;;;;;;;25.66;53.44;94915.63;5083319;28;20134;-68
2022/09/10 07:36:27;;;;;;;7.55;4.25;;;;;;;25.89;52.27;94917.97;5076334;27;20100;-68
2022/09/10 07:38:57;;;;;;;6.93;4.55;;;;;;;25.96;51.68;94920.91;5081134;28;20048;-68
2022/09/10 07:41:28;;;;;;;14.02;4.60;;;;;;;26.03;51.71;94921.16;5084853;28;20094;-70
2022/09/10 07:43:58;;;;;;;10.77;4.40;;;;;;;26.16;49.33;94913.22;5083013;28;20050;-70
2022/09/10 07:46:30;;;;;;;6.90;4.63;;;;;;;26.33;49.88;94921.06;5083456;28;20523;-70
2022/09/10 07:48:59;;;;;;;6.55;3.97;;;;;;;26.49;48.95;94911.31;5100836;27;20100;-70
2022/09/10 07:51:28;;;;;;;8.38;4.78;;;;;;;26.71;49.04;94912.06;5087878;28;20063;-69
2022/09/10 07:53:58;;;;;;;11.57;4.13;;;;;;;27.01;48.26;94919.88;5079305;27;20052;-68
2022/09/10 07:56:33;;;;;;;5.97;3.63;;;;;;;27.15;47.45;94920.31;5082508;27;20516;-68
2022/09/10 07:59:02;;;;;;;6.22;4.45;;;;;;;27.22;47.85;94925.88;5083545;28;20031;-68
2022/09/10 08:01:36;;;;;;;8.43;4.47;;;;;;;27.30;45.05;94926.13;5079439;28;20043;-68
2022/09/10 08:04:05;;;;;;;5.47;4.20;;;;;;;27.28;46.41;94929.16;5080644;28;20143;-68
2022/09/10 08:06:35;;;;;;;11.48;4.15;;;;;;;27.29;46.26;94935.28;5080299;27;20579;-69
2022/09/10 08:09:08;;;;;;;10.32;4.20;;;;;;;27.53;45.65;94935.28;5086442;28;20688;-70
2022/09/10 08:11:41;;;;;;;9.10;5.15;;;;;;;27.47;46.39;94931.25;5082059;28;20043;-70
2022/09/10 08:14:12;;;;;;;11.98;4.30;;;;;;;27.44;45.55;94921.22;5083485;28;20620;-70
2022/09/10 08:16:40;;;;;;;12.45;4.55;;;;;;;27.26;47.34;94918.78;5080951;27;20043;-70
2022/09/10 08:19:13;;;;;;;7.90;4.72;;;;;;;27.31;47.57;94922.34;5087933;27;20126;-70
2022/09/10 08:21:40;;;;;;;8.60;4.47;;;;;;;27.11;47.05;94919.44;5078330;28;20136;-70
2022/09/10 08:24:09;;;;;;;10.50;4.18;;;;;;;27.30;47.01;94920.78;5067092;27;20047;-70
2022/09/10 08:26:38;;;;;;;9.40;5.30;;;;;;;27.34;47.28;94921.69;5079013;28;20043;-71
2022/09/10 08:29:05;;;;;;;6.63;4.82;;;;;;;27.38;47.52;94918.00;5083082;28;20248;-71
2022/09/10 08:31:33;;;;;;;12.20;4.25;;;;;;;27.17;47.14;94918.09;5100009;27;20044;-70
2022/09/10 08:34:14;;;;;;;9.25;5.05;;;;;;;27.34;47.18;94916.34;5080783;28;20055;-71
2022/09/10 08:36:47;;;;;;;11.57;4.68;;;;;;;27.56;47.55;94909.72;5077532;28;20136;-71
2022/09/10 08:39:14;;;;;;;5.93;4.68;;;;;;;27.81;46.99;94907.78;5079599;27;20039;-71
2022/09/10 08:41:54;;;;;;;7.25;5.10;;;;;;;28.12;48.21;94911.72;5081936;28;20596;-71
2022/09/10 08:44:39;;;;;;;15.57;4.68;;;;;;;28.32;45.49;94905.34;5079296;28;20070;-70
2022/09/10 08:47:34;;;;;;;11.10;5.15;;;;;;;28.67;44.82;94910.13;5101230;27;20044;-71
2022/09/10 08:50:10;;;;;;;11.25;4.53;;;;;;;28.82;44.43;94905.13;5099056;28;20041;-71
2022/09/10 08:52:56;;;;;;;11.35;4.80;;;;;;;28.87;43.41;94888.78;5078848;28;20053;-71
2022/09/10 08:55:30;;;;;;;13.35;5.13;;;;;;;28.90;45.11;94885.38;5082203;28;20040;-71
2022/09/10 08:58:17;;;;;;;13.52;5.57;;;;;;;29.23;43.34;94900.38;5100711;27;20092;-71
2022/09/10 09:00:51;;;;;;;8.82;5.00;;;;;;;29.21;42.53;94889.19;5071434;28;20036;-67
2022/09/10 09:03:31;;;;;;;9.90;5.93;;;;;;;28.89;43.46;94897.25;5054550;28;20521;-67
2022/09/10 09:06:06;;;;;;;20.15;5.35;;;;;;;28.75;44.64;94898.44;5054359;28;20177;-67
2022/09/10 09:08:48;;;;;;;7.78;5.50;;;;;;;28.75;44.15;94895.75;5053469;28;20575;-67
2022/09/10 09:11:31;;;;;;;8.77;5.00;;;;;;;28.76;44.31;94902.69;5057174;28;20048;-67
2022/09/10 09:14:11;;;;;;;10.63;5.10;;;;;;;28.89;44.16;94894.56;5053450;28;20048;-67
2022/09/10 09:17:05;;;;;;;7.13;4.90;;;;;;;29.01;44.07;94891.78;5055064;28;20110;-67
2022/09/10 09:19:39;;;;;;;7.60;4.70;;;;;;;28.84;43.90;94886.78;5052718;28;20048;-67
2022/09/10 09:22:10;;;;;;;8.35;5.20;;;;;;;28.69;45.01;94886.44;5054981;28;20052;-68
2022/09/10 09:24:41;;;;;;;16.13;5.65;;;;;;;28.79;44.49;94877.88;5054284;28;20056;-68
2022/09/10 09:27:16;;;;;;;13.95;7.72;;;;;;;28.55;45.17;94875.38;5053142;28;20036;-68
2022/09/10 09:30:04;;;;;;;16.48;5.88;;;;;;;28.53;45.30;94877.59;5040977;28;20473;-66
2022/09/10 09:32:39;;;;;;;13.15;6.13;;;;;;;28.56;45.71;94872.34;5054807;28;20110;-66
2022/09/10 09:35:31;;;;;;;16.60;5.93;;;;;;;28.42;46.94;94867.38;5056393;28;20131;-67
2022/09/10 09:38:06;;;;;;;11.27;5.55;;;;;;;28.37;47.66;94869.53;5058413;28;20114;-68
2022/09/10 09:40:45;;;;;;;9.90;6.00;;;;;;;28.31;47.09;94869.00;5057537;28;20049;-67
2022/09/10 09:43:41;;;;;;;13.85;7.18;;;;;;;28.27;47.31;94853.97;5057678;28;20114;-66
2022/09/10 09:46:16;;;;;;;17.38;6.47;;;;;;;28.42;47.61;94845.94;5056703;28;20114;-67
2022/09/10 09:48:52;;;;;;;15.55;6.32;;;;;;;28.42;46.58;94845.19;5058714;28;20047;-67
2022/09/10 09:51:24;;;;;;;8.48;5.95;;;;;;;28.56;45.99;94844.78;5058437;28;20048;-67
2022/09/10 09:53:56;;;;;;;13.30;5.53;;;;;;;28.64;45.71;94843.81;5059388;28;20086;-67
2022/09/10 09:56:49;;;;;;;7.75;5.75;;;;;;;28.75;46.36;94841.41;5056732;28;20166;-67
2022/09/10 09:59:25;;;;;;;;;;;;;;;28.71;45.43;94829.81;5059826;28;20135;-67
2022/09/10 10:01:55;;;;;;;12.43;6.13;;;;;;;28.93;46.16;94825.72;5091381;27;19923;-67
2022/09/10 10:04:25;;;;;;;11.18;6.20;;;;;;;28.98;45.17;94822.78;5100434;27;20043;-68
2022/09/10 10:06:55;;;;;;;10.30;6.13;;;;;;;28.94;45.30;94811.22;5106637;27;20120;-68
2022/09/10 10:09:30;;;;;;;11.43;5.78;;;;;;;29.12;45.92;94812.38;5083152;27;20048;-68
2022/09/10 10:11:58;;;;;;;19.63;6.13;;;;;;;29.12;45.22;94801.66;5109109;27;20125;-65
2022/09/10 10:14:31;;;;;;;13.88;6.32;;;;;;;29.56;45.09;94811.38;5100768;27;20071;-67
2022/09/10 10:16:59;;;;;;;15.68;7.20;;;;;;;29.85;45.28;94803.91;5100859;27;20039;-67
2022/09/10 10:19:35;;;;;;;14.45;5.97;;;;;;;29.94;43.96;94791.03;5099239;27;20109;-66
2022/09/10 10:22:17;;;;;;;10.88;5.80;;;;;;;30.38;44.15;94801.44;5101491;27;20047;-66
2022/09/10 10:24:46;;;;;;;11.25;5.82;;;;;;;30.97;41.99;94796.63;5100194;27;20844;-67
2022/09/10 10:27:26;;;;;;;11.05;5.18;;;;;;;31.41;41.33;94793.34;5086883;27;20044;-69
2022/09/10 10:29:59;;;;;;;10.90;6.40;;;;;;;31.78;38.67;94795.34;5099928;27;20632;-74
2022/09/10 10:32:51;;;;;;;8.95;6.03;;;;;;;32.11;39.90;94801.88;5102469;27;20039;-73
2022/09/10 10:35:52;;;;;;;12.73;6.18;;;;;;;32.47;37.95;94791.41;5081213;28;20044;-74
2022/09/10 10:38:28;;;;;;;13.13;5.97;;;;;;;32.69;37.29;94792.38;5083672;28;20118;-74
2022/09/10 10:41:30;;;;;;;16.40;5.55;;;;;;;33.00;36.88;94800.28;5078266;28;20679;-73
2022/09/10 10:44:11;;;;;;;11.60;5.57;;;;;;;33.07;37.81;94792.22;5011162;28;20629;-72
2022/09/10 10:46:49;;;;;;;21.00;6.07;;;;;;;33.18;36.24;94795.78;5064262;28;20044;-73
2022/09/10 10:49:24;;;;;;;11.05;5.95;;;;;;;33.43;34.96;94789.75;5101508;27;20456;-74
2022/09/10 10:52:10;;;;;;;21.48;8.07;;;;;;;33.59;35.40;94781.31;5098079;27;20708;-69
2022/09/10 10:55:09;;;;;;;15.57;6.38;;;;;;;33.89;34.97;94781.06;5082396;27;20043;-70
2022/09/10 10:57:44;;;;;;;9.40;5.47;;;;;;;34.05;34.64;94781.47;5097363;27;20067;-72
2022/09/10 11:00:15;;;;;;;11.05;5.15;;;;;;;33.84;34.19;94759.81;5095963;27;20126;-72
2022/09/10 11:02:49;;;;;;;20.73;6.05;;;;;;;33.88;34.99;94771.41;5084022;28;20172;-72
2022/09/10 11:05:40;;;;;;;8.55;4.78;;;;;;;33.98;34.08;94762.56;5098887;27;20040;-72
2022/09/10 11:08:15;;;;;;;9.95;6.10;;;;;;;33.66;35.21;94749.75;5097988;27;20032;-71
2022/09/10 11:10:50;;;;;;;20.77;5.45;;;;;;;33.70;35.51;94739.72;5082189;27;20618;-72
2022/09/10 11:13:26;;;;;;;11.00;5.70;;;;;;;34.07;34.73;94746.75;5098202;27;20194;-72
2022/09/10 11:16:00;;;;;;;8.55;5.53;;;;;;;33.76;34.05;94750.16;5065384;28;20789;-70
2022/09/10 11:18:38;;;;;;;9.13;5.45;;;;;;;33.46;35.54;94757.38;5079870;27;20041;-70
2022/09/10 11:21:30;;;;;;;17.00;6.40;;;;;;;33.34;36.54;94747.66;5101306;27;20039;-70
2022/09/10 11:24:06;;;;;;;15.50;5.30;;;;;;;33.13;36.03;94756.47;5099433;27;20044;-70
2022/09/10 11:26:43;;;;;;;15.68;6.00;;;;;;;32.82;36.90;94757.78;5099790;27;20051;-70
2022/09/10 11:29:43;;;;;;;18.15;6.53;;;;;;;32.26;37.55;94764.28;5080943;27;20039;-70
2022/09/10 11:32:20;;;;;;;17.42;6.57;;;;;;;32.10;37.64;94767.97;5099270;27;20035;-70
2022/09/10 11:35:21;;;;;;;16.27;7.43;;;;;;;31.57;39.26;94795.88;5066230;28;20104;-70
2022/09/10 11:37:50;;;;;;;16.38;6.63;;;;;;;29.54;51.17;94801.00;5095334;27;20128;-70
2022/09/10 11:40:29;;;;;;;25.05;8.38;;;;;;;27.21;69.23;94763.94;5092494;27;21626;-70
2022/09/10 11:43:02;;;;;;;17.17;8.02;;;;;;;25.19;85.68;94755.81;5085533;27;20043;-70
2022/09/10 11:45:47;;;;;;;20.65;11.60;;;;;;;23.98;98.56;94780.06;5079778;28;20074;-72
2022/09/10 11:48:31;;;;;;;18.25;10.85;;;;;;;23.01;100.00;94773.22;5110560;27;20128;-72